Time;durP1;ratioP1;P1;durP2;ratioP2;P2;SDS_P1;SDS_P2;PMS_P1;PMS_P2;Temp;Humidity;BMP_temperature;BMP_pressure;BME280_temperature;BME280_humidity;BME280_pressure;Samples;Min_cycle;Max_cycle;Signal;HPM_P1;HPM_P2
2022/04/17 00:00:43;;;;;;;1.97;1.87;;;7.50;58.00;7.40;97611.00;;;;5059531;28;20203;-82
2022/04/17 00:03:10;;;;;;;2.53;2.10;;;7.40;57.90;7.40;97603.00;;;;5058561;28;20197;-82
2022/04/17 00:05:39;;;;;;;2.37;2.17;;;7.40;58.00;7.30;97610.00;;;;5058837;28;20658;-82
2022/04/17 00:08:07;;;;;;;1.77;1.67;;;7.40;58.30;7.30;97595.00;;;;5058015;28;20223;-82
2022/04/17 00:10:34;;;;;;;1.90;1.80;;;7.30;58.40;7.30;97595.00;;;;5057822;28;20569;-82
2022/04/17 00:13:01;;;;;;;2.00;1.90;;;7.30;58.60;7.30;97597.00;;;;5059656;28;20207;-82
2022/04/17 00:15:28;;;;;;;1.77;1.67;;;7.30;59.20;7.20;97593.00;;;;5059635;28;20204;-82
2022/04/17 00:17:55;;;;;;;2.03;1.80;;;7.30;58.70;7.20;97591.00;;;;5057737;28;20311;-82
2022/04/17 00:20:22;;;;;;;2.27;2.03;;;7.30;58.80;7.20;97590.00;;;;5056794;28;20195;-82
2022/04/17 00:22:51;;;;;;;1.97;1.87;;;7.20;59.00;7.20;97590.00;;;;5056533;28;20201;-82
2022/04/17 00:25:18;;;;;;;2.40;2.30;;;7.20;59.10;7.10;97577.00;;;;5056830;28;20200;-82
2022/04/17 00:27:45;;;;;;;1.80;1.70;;;7.20;59.20;7.10;97572.00;;;;5056055;28;20307;-82
2022/04/17 00:30:13;;;;;;;2.43;2.23;;;7.20;59.30;7.10;97572.00;;;;5056736;28;20197;-82
2022/04/17 00:32:40;;;;;;;3.10;2.27;;;7.20;59.40;7.10;97577.00;;;;5055113;28;20219;-82
2022/04/17 00:35:09;;;;;;;2.40;2.20;;;7.20;59.40;7.10;97572.00;;;;5037619;28;20197;-82
2022/04/17 00:37:37;;;;;;;2.33;2.13;;;7.10;59.40;7.10;97577.00;;;;5043789;28;20226;-82
2022/04/17 00:40:08;;;;;;;2.10;2.00;;;7.10;59.40;7.00;97574.00;;;;5044225;28;20189;-82
2022/04/17 00:42:35;;;;;;;2.40;2.30;;;7.10;59.50;7.00;97565.00;;;;5040648;28;20191;-82
2022/04/17 00:45:02;;;;;;;2.40;2.20;;;7.10;59.50;7.00;97565.00;;;;5055701;28;20200;-82
2022/04/17 00:47:29;;;;;;;2.03;1.93;;;7.10;59.50;7.00;97570.00;;;;5060062;28;20212;-82
2022/04/17 00:49:57;;;;;;;2.53;2.33;;;7.00;59.50;7.00;97564.00;;;;5060418;28;20207;-82
2022/04/17 00:52:24;;;;;;;2.77;2.33;;;7.00;59.60;6.90;97565.00;;;;5060809;28;20261;-82
2022/04/17 00:54:53;;;;;;;2.47;2.27;;;7.00;59.60;6.90;97569.00;;;;5058572;28;20586;-82
2022/04/17 01:05:06;;;;;;;2.10;1.97;;;6.90;59.70;6.80;97551.00;;;;5029756;28;20787;-88
2022/04/17 01:07:34;;;;;;;2.43;2.23;;;6.90;59.90;6.80;97559.00;;;;5030509;28;20694;-87
2022/04/17 01:10:03;;;;;;;3.10;2.20;;;6.90;60.00;6.90;97554.00;;;;5032056;28;20215;-88
2022/04/17 01:12:31;;;;;;;2.13;2.03;;;6.80;60.20;6.90;97553.00;;;;5033227;28;20263;-86
2022/04/17 01:14:59;;;;;;;2.17;1.93;;;6.90;60.50;6.90;97559.00;;;;5032744;28;20201;-87
2022/04/17 01:17:26;;;;;;;2.60;2.40;;;6.90;60.70;7.00;97551.00;;;;5032226;28;20320;-87
2022/04/17 01:19:53;;;;;;;2.27;2.07;;;6.90;60.70;7.10;97545.00;;;;5033106;28;20212;-86
2022/04/17 01:22:22;;;;;;;2.07;1.97;;;7.00;60.70;7.10;97535.00;;;;5032298;28;20220;-84
2022/04/17 01:27:36;;;;;;;2.43;2.00;;;7.00;60.70;7.20;97549.00;;;;5032800;28;20227;-89
2022/04/17 01:30:04;;;;;;;2.13;1.93;;;7.00;60.60;7.20;97553.00;;;;5032705;28;20210;-89
2022/04/17 01:32:31;;;;;;;2.10;2.00;;;7.10;60.60;7.20;97541.00;;;;5032806;28;20676;-89
2022/04/17 01:34:58;;;;;;;1.90;1.80;;;7.10;60.40;7.10;97545.00;;;;5032581;28;20204;-88
2022/04/17 01:37:27;;;;;;;2.17;2.00;;;7.10;60.20;7.10;97537.00;;;;5032693;28;20229;-89
2022/04/17 01:39:54;;;;;;;2.00;1.90;;;7.10;60.10;7.10;97533.00;;;;5032516;28;20658;-88
2022/04/17 01:42:21;;;;;;;2.13;1.93;;;7.10;60.00;7.00;97536.00;;;;5032677;28;20654;-89
2022/04/17 01:44:51;;;;;;;2.33;2.13;;;7.00;59.80;7.00;97533.00;;;;5032752;28;20209;-88
2022/04/17 01:47:18;;;;;;;1.87;1.77;;;7.00;59.70;7.00;97526.00;;;;5032730;28;20229;-89
2022/04/17 01:49:45;;;;;;;2.67;1.90;;;7.00;60.40;6.90;97533.00;;;;5033125;28;20197;-88
2022/04/17 01:52:12;;;;;;;2.07;1.77;;;7.00;59.70;6.90;97517.00;;;;5033248;28;20676;-88
2022/04/17 01:54:40;;;;;;;1.90;1.80;;;6.90;59.60;6.80;97521.00;;;;5032985;28;20197;-88
2022/04/17 01:57:07;;;;;;;1.80;1.70;;;6.90;59.50;6.80;97513.00;;;;5032541;28;20225;-88
2022/04/17 01:59:34;;;;;;;2.90;1.80;;;6.80;59.50;6.70;97519.00;;;;5033128;28;20560;-88
2022/04/17 02:02:01;;;;;;;2.13;1.67;;;6.70;59.50;6.70;97520.00;;;;5032907;28;20205;-88
2022/04/17 02:04:32;;;;;;;1.87;1.77;;;6.70;59.70;6.60;97505.00;;;;5032563;28;20213;-89
2022/04/17 02:07:00;;;;;;;1.80;1.70;;;6.70;59.80;6.60;97509.00;;;;5032853;28;20214;-88
2022/04/17 02:09:27;;;;;;;2.37;2.00;;;6.70;59.80;6.60;97502.00;;;;5032696;28;20284;-88
2022/04/17 02:11:55;;;;;;;2.30;1.70;;;6.60;59.90;6.50;97494.00;;;;5032866;28;20197;-88
2022/04/17 02:14:23;;;;;;;1.60;1.50;;;6.60;59.90;6.50;97492.00;;;;5032640;28;20201;-89
2022/04/17 02:16:50;;;;;;;1.80;1.70;;;6.60;60.10;6.50;97494.00;;;;5032499;28;20380;-88
2022/04/17 02:19:17;;;;;;;2.20;2.00;;;6.50;60.20;6.40;97495.00;;;;5034192;28;20665;-88
2022/04/17 02:21:44;;;;;;;2.30;2.10;;;6.50;60.30;6.40;97496.00;;;;5036758;28;20232;-88
2022/04/17 02:24:11;;;;;;;2.07;1.97;;;6.50;60.40;6.40;97486.00;;;;5036411;28;20197;-88
2022/04/17 02:26:38;;;;;;;2.50;2.10;;;6.50;60.40;6.40;97485.00;;;;5036534;28;20231;-89
2022/04/17 02:29:06;;;;;;;2.90;1.90;;;6.40;60.30;6.40;97483.00;;;;5036453;28;20667;-89
2022/04/17 02:31:34;;;;;;;2.60;2.07;;;6.50;60.40;6.40;97477.00;;;;5036688;28;20209;-88
2022/04/17 02:34:01;;;;;;;2.20;2.00;;;6.50;60.40;6.40;97480.00;;;;5036336;28;20666;-89
2022/04/17 02:36:28;;;;;;;1.97;1.80;;;6.50;60.20;6.30;97472.00;;;;5036666;28;20199;-88
2022/04/17 02:38:55;;;;;;;1.97;1.73;;;6.40;60.10;6.40;97470.00;;;;5036177;28;20312;-89
2022/04/17 02:41:23;;;;;;;2.13;1.70;;;6.40;60.00;6.30;97464.00;;;;5036238;28;20276;-88
2022/04/17 02:43:50;;;;;;;2.27;2.07;;;6.40;60.00;6.30;97469.00;;;;5036663;28;20580;-88
2022/04/17 02:49:00;;;;;;;1.83;1.63;;;6.30;60.10;6.20;97466.00;;;;5037386;28;20208;-88
2022/04/17 02:51:27;;;;;;;2.00;1.90;;;6.30;60.10;6.20;97465.00;;;;5045733;28;20197;-88
2022/04/17 02:53:54;;;;;;;1.90;1.80;;;6.30;60.20;6.20;97467.00;;;;5056860;28;20193;-89
2022/04/17 02:56:21;;;;;;;3.60;2.10;;;6.30;60.20;6.20;97458.00;;;;5054982;28;20209;-88
2022/04/17 02:58:50;;;;;;;1.83;1.73;;;6.30;60.40;6.10;97461.00;;;;5043327;28;20307;-88
2022/04/17 03:06:47;;;;;;;1.73;1.63;;;6.20;60.40;6.00;97453.00;;;;5042880;28;20221;-89
2022/04/17 03:09:14;;;;;;;2.20;2.00;;;6.20;60.40;6.00;97468.00;;;;5036264;28;20292;-88
2022/04/17 03:11:41;;;;;;;2.20;2.00;;;6.10;60.30;6.00;97466.00;;;;5036129;28;20287;-88
2022/04/17 03:14:09;;;;;;;1.80;1.70;;;6.10;60.50;6.00;97465.00;;;;5036593;28;20292;-88
2022/04/17 03:16:38;;;;;;;2.63;2.00;;;6.10;60.70;6.00;97460.00;;;;5036639;28;20657;-88
2022/04/17 03:19:06;;;;;;;1.80;1.70;;;6.10;60.80;6.00;97466.00;;;;5036173;28;20724;-88
2022/04/17 03:21:34;;;;;;;2.17;2.07;;;6.10;61.50;6.00;97461.00;;;;5036366;28;20271;-88
2022/04/17 03:24:01;;;;;;;1.97;1.70;;;6.00;60.80;5.90;97459.00;;;;5036321;28;20225;-88
2022/04/17 03:26:30;;;;;;;1.90;1.80;;;6.10;60.90;5.90;97455.00;;;;5036043;28;20658;-88
2022/04/17 03:28:58;;;;;;;1.90;1.80;;;6.00;61.00;5.90;97454.00;;;;5035822;28;20219;-88
2022/04/17 03:31:25;;;;;;;2.10;2.00;;;5.90;61.00;5.90;97457.00;;;;5035029;28;20276;-88
2022/04/17 03:33:54;;;;;;;2.33;2.13;;;6.10;61.80;5.90;97452.00;;;;5035916;28;20228;-88
2022/04/17 03:36:21;;;;;;;2.40;2.20;;;6.00;61.00;5.90;97454.00;;;;5035716;28;20203;-88
2022/04/17 03:38:48;;;;;;;2.10;1.90;;;6.00;61.00;5.90;97447.00;;;;5035570;28;20308;-88
2022/04/17 03:41:16;;;;;;;2.30;2.10;;;6.00;60.90;5.90;97442.00;;;;5035660;28;20209;-88
2022/04/17 03:43:43;;;;;;;2.13;1.93;;;6.00;61.00;5.90;97445.00;;;;5035894;28;20197;-88
2022/04/17 03:46:10;;;;;;;2.10;2.00;;;6.00;61.10;5.90;97454.00;;;;5035289;28;20231;-88
2022/04/17 03:48:37;;;;;;;2.43;2.23;;;6.00;61.10;5.90;97443.00;;;;5053413;28;20211;-88
2022/04/17 03:51:05;;;;;;;2.37;2.17;;;6.00;61.10;5.90;97444.00;;;;5055117;28;20220;-88
2022/04/17 03:53:32;;;;;;;1.97;1.87;;;6.00;61.20;5.90;97436.00;;;;5055274;28;20309;-88
2022/04/17 03:55:59;;;;;;;2.40;2.20;;;6.00;61.20;5.90;97430.00;;;;5051648;28;20221;-88
2022/04/17 03:58:26;;;;;;;2.20;2.10;;;6.00;61.20;5.90;97435.00;;;;5034916;28;20237;-88
2022/04/17 04:00:54;;;;;;;2.13;2.03;;;6.00;61.30;5.90;97430.00;;;;5028857;28;20647;-88
2022/04/17 04:03:21;;;;;;;2.00;1.90;;;6.00;61.20;5.90;97434.00;;;;5015025;28;20229;-88
2022/04/17 04:05:50;;;;;;;2.20;2.10;;;6.00;61.10;5.90;97438.00;;;;5015206;28;20194;-88
2022/04/17 04:08:19;;;;;;;1.90;1.80;;;5.90;61.10;5.90;97439.00;;;;5014922;28;20237;-88
2022/04/17 04:10:46;;;;;;;2.57;2.37;;;6.00;61.20;5.90;97443.00;;;;5014876;28;20225;-88
2022/04/17 04:13:13;;;;;;;2.50;1.97;;;6.00;61.20;5.90;97442.00;;;;5014859;28;20202;-88
2022/04/17 04:15:40;;;;;;;2.17;2.07;;;6.00;61.20;5.90;97441.00;;;;5014554;28;20198;-88
2022/04/17 04:18:08;;;;;;;2.57;2.40;;;6.00;61.20;5.90;97437.00;;;;5014423;28;20230;-88
2022/04/17 04:20:35;;;;;;;2.37;2.17;;;6.00;61.10;5.90;97430.00;;;;5014403;28;20194;-88
2022/04/17 04:23:02;;;;;;;2.13;1.93;;;6.00;61.20;5.90;97433.00;;;;5014870;28;20196;-88
2022/04/17 04:25:30;;;;;;;2.13;2.03;;;6.00;61.10;5.90;97430.00;;;;5014453;28;20198;-88
2022/04/17 04:30:42;;;;;;;2.40;1.90;;;6.00;61.20;5.90;97433.00;;;;5035539;28;20234;-88
2022/04/17 04:33:09;;;;;;;2.57;2.37;;;6.00;61.20;5.90;97430.00;;;;5054193;28;20262;-88
2022/04/17 04:35:37;;;;;;;3.17;2.20;;;6.00;61.30;5.90;97433.00;;;;5054099;28;20200;-88
2022/04/17 04:38:05;;;;;;;1.97;1.87;;;5.90;61.30;5.90;97429.00;;;;5053829;28;20311;-88
2022/04/17 04:40:33;;;;;;;2.13;2.03;;;6.00;61.50;5.90;97438.00;;;;5053794;28;20207;-88
2022/04/17 04:43:02;;;;;;;2.57;2.33;;;6.00;61.50;5.90;97438.00;;;;5053782;28;20561;-89
2022/04/17 04:48:15;;;;;;;2.60;2.07;;;6.00;61.60;5.90;97437.00;;;;5053761;28;20226;-88
2022/04/17 04:50:42;;;;;;;2.83;2.57;;;6.00;61.60;5.90;97438.00;;;;5053586;28;20199;-88
2022/04/17 04:53:10;;;;;;;2.73;2.53;;;6.00;61.50;5.90;97440.00;;;;5053497;28;20582;-88
2022/04/17 04:55:39;;;;;;;2.13;1.93;;;6.00;61.60;6.00;97441.00;;;;5053850;28;20572;-88
2022/04/17 04:58:06;;;;;;;2.27;2.07;;;6.00;61.80;6.00;97436.00;;;;5053761;28;20232;-88
2022/04/17 05:00:33;;;;;;;2.27;2.07;;;6.00;61.80;6.00;97440.00;;;;5053600;28;20207;-88
2022/04/17 05:03:00;;;;;;;2.47;2.00;;;6.10;62.00;6.00;97447.00;;;;5053434;28;20571;-88
2022/04/17 05:05:27;;;;;;;2.70;2.50;;;6.10;62.00;6.00;97449.00;;;;5053472;28;20181;-88
2022/04/17 05:07:54;;;;;;;2.57;2.10;;;6.10;62.10;6.10;97457.00;;;;5053377;28;20227;-88
2022/04/17 05:10:22;;;;;;;2.10;2.00;;;6.10;62.30;6.10;97445.00;;;;5053328;28;20188;-88
2022/04/17 05:12:50;;;;;;;2.40;2.20;;;6.10;62.30;6.10;97443.00;;;;5053397;28;20232;-88
2022/04/17 05:15:17;;;;;;;2.73;2.10;;;6.10;62.30;6.10;97445.00;;;;5053247;28;20201;-89
2022/04/17 05:17:44;;;;;;;2.27;2.03;;;6.20;62.40;6.10;97443.00;;;;5053224;28;20220;-89
2022/04/17 05:20:15;;;;;;;2.40;2.20;;;6.20;62.40;6.20;97445.00;;;;5053466;28;20205;-88
2022/04/17 05:22:44;;;;;;;2.50;2.03;;;6.20;62.40;6.20;97434.00;;;;5053448;28;20527;-89
2022/04/17 05:25:11;;;;;;;2.30;2.10;;;6.20;62.40;6.20;97441.00;;;;5052997;28;20195;-89
2022/04/17 05:27:38;;;;;;;3.40;2.20;;;6.20;62.30;6.20;97438.00;;;;5043351;28;20222;-89
2022/04/17 05:30:09;;;;;;;3.63;2.50;;;6.30;62.40;6.30;97439.00;;;;5013480;28;20284;-89
2022/04/17 05:32:36;;;;;;;2.37;2.17;;;6.30;62.40;6.30;97436.00;;;;5020307;28;20548;-88
2022/04/17 05:35:03;;;;;;;2.37;2.27;;;6.30;62.40;6.40;97438.00;;;;5033054;28;20207;-88
2022/04/17 05:37:30;;;;;;;2.30;2.10;;;6.40;62.50;6.40;97428.00;;;;5032964;28;20740;-89
2022/04/17 05:39:57;;;;;;;1.80;1.70;;;6.40;62.50;6.40;97443.00;;;;5033618;28;20227;-90
2022/04/17 05:42:25;;;;;;;2.40;2.10;;;6.40;62.30;6.50;97446.00;;;;5038874;28;20206;-88
2022/04/17 05:44:53;;;;;;;2.33;2.23;;;6.40;62.30;6.50;97448.00;;;;5036458;28;20204;-89
2022/04/17 05:47:22;;;;;;;2.30;2.10;;;6.50;62.50;6.60;97454.00;;;;5034934;28;20690;-89
2022/04/17 05:49:49;;;;;;;2.07;1.87;;;6.50;62.40;6.60;97453.00;;;;5033137;28;20204;-88
2022/04/17 05:52:17;;;;;;;2.17;1.97;;;6.60;62.30;6.60;97451.00;;;;5033097;28;20201;-88
2022/04/17 05:54:44;;;;;;;2.40;2.20;;;6.60;62.40;6.70;97456.00;;;;5033189;28;20300;-91
2022/04/17 05:57:11;;;;;;;2.00;1.90;;;6.70;62.50;6.70;97448.00;;;;5033329;28;20242;-88
2022/04/17 05:59:38;;;;;;;2.63;2.03;;;6.70;62.60;6.80;97442.00;;;;5033024;28;20221;-89
2022/04/17 06:02:08;;;;;;;2.23;2.03;;;6.80;62.60;6.90;97456.00;;;;5033689;28;20746;-89
2022/04/17 06:04:37;;;;;;;4.90;2.30;;;6.80;62.60;6.90;97457.00;;;;5033823;28;20209;-88
2022/04/17 06:07:04;;;;;;;2.57;2.10;;;6.90;62.60;7.00;97459.00;;;;5033334;28;20213;-88
2022/04/17 06:09:31;;;;;;;2.53;2.10;;;6.90;62.40;7.10;97460.00;;;;5033491;28;20641;-88
2022/04/17 06:11:58;;;;;;;2.37;2.17;;;7.00;62.30;7.10;97459.00;;;;5033285;28;20201;-90
2022/04/17 06:14:25;;;;;;;2.30;2.00;;;7.00;62.30;7.20;97463.00;;;;5033281;28;20255;-89
2022/04/17 06:16:52;;;;;;;2.40;2.20;;;7.10;62.30;7.30;97457.00;;;;5033269;28;20717;-91
2022/04/17 06:19:19;;;;;;;2.23;2.07;;;7.20;62.30;7.40;97457.00;;;;5032695;28;20308;-88
2022/04/17 06:21:48;;;;;;;2.30;2.03;;;7.20;62.20;7.40;97457.00;;;;5032641;28;20569;-90
2022/04/17 06:24:15;;;;;;;3.00;2.23;;;7.30;62.20;7.50;97465.00;;;;5033055;28;20284;-84
2022/04/17 06:26:42;;;;;;;2.47;2.07;;;7.40;62.20;7.60;97463.00;;;;5034575;28;20477;-83
2022/04/17 06:29:09;;;;;;;2.40;2.13;;;7.50;62.30;7.80;97458.00;;;;5034287;28;20685;-84
2022/04/17 06:31:43;;;;;;;2.07;1.87;;;7.50;62.20;7.90;97451.00;;;;5034192;28;20205;-83
2022/04/17 06:34:10;;;;;;;2.10;1.90;;;7.60;62.30;8.00;97463.00;;;;5034250;28;20213;-84
2022/04/17 06:36:37;;;;;;;2.00;1.90;;;7.70;62.50;8.20;97455.00;;;;5034520;28;20218;-83
2022/04/17 06:39:06;;;;;;;2.17;2.03;;;7.80;62.50;8.30;97457.00;;;;5033623;28;20278;-86
2022/04/17 06:41:33;;;;;;;2.07;1.90;;;8.00;62.40;8.40;97466.00;;;;5026273;28;20201;-84
2022/04/17 06:44:00;;;;;;;2.17;2.00;;;8.10;62.50;8.50;97469.00;;;;5031478;28;20209;-86
2022/04/17 06:46:27;;;;;;;2.20;2.00;;;8.20;62.40;8.60;97463.00;;;;5033755;28;20189;-84
2022/04/17 06:48:54;;;;;;;2.10;2.00;;;8.30;62.40;8.80;97465.00;;;;5034420;28;20201;-82
2022/04/17 06:51:24;;;;;;;1.90;1.80;;;8.40;62.00;8.90;97468.00;;;;5033911;28;20271;-85
2022/04/17 06:53:51;;;;;;;4.63;1.87;;;8.50;61.80;9.00;97466.00;;;;5025783;28;20205;-84
2022/04/17 06:56:19;;;;;;;2.00;1.90;;;8.60;61.70;9.10;97476.00;;;;5014643;28;20312;-84
2022/04/17 06:58:47;;;;;;;2.00;1.80;;;8.70;61.70;9.20;97475.00;;;;5014265;28;20221;-84
2022/04/17 07:01:14;;;;;;;1.90;1.80;;;8.80;61.60;9.30;97478.00;;;;5022091;28;20198;-83
2022/04/17 07:03:41;;;;;;;1.90;1.57;;;8.90;61.50;9.50;97477.00;;;;5034900;28;20206;-80
2022/04/17 07:06:09;;;;;;;2.00;1.80;;;9.00;61.50;9.60;97477.00;;;;5033581;28;20232;-80
2022/04/17 07:08:36;;;;;;;1.93;1.83;;;9.20;61.30;9.70;97473.00;;;;5042799;28;20289;-81
2022/04/17 07:11:04;;;;;;;1.80;1.70;;;9.30;61.20;9.80;97472.00;;;;5039701;28;20197;-79
2022/04/17 07:13:33;;;;;;;1.70;1.60;;;9.40;61.20;10.00;97476.00;;;;5036940;28;20205;-80
2022/04/17 07:16:00;;;;;;;1.70;1.60;;;9.60;61.10;10.20;97486.00;;;;5036173;28;20193;-79
2022/04/17 07:18:27;;;;;;;1.77;1.60;;;9.70;60.70;10.40;97489.00;;;;5035458;28;20581;-79
2022/04/17 07:20:54;;;;;;;1.90;1.67;;;9.90;60.80;10.60;97490.00;;;;5035941;28;20201;-78
2022/04/17 07:23:21;;;;;;;1.87;1.77;;;10.10;60.90;10.90;97492.00;;;;5015988;28;20212;-79
2022/04/17 07:25:48;;;;;;;1.80;1.70;;;10.30;61.00;11.20;97492.00;;;;5015589;28;20694;-79
2022/04/17 07:28:15;;;;;;;2.20;2.00;;;10.50;60.90;11.40;97479.00;;;;5017011;28;20218;-79
2022/04/17 07:30:43;;;;;;;2.17;2.00;;;10.70;60.70;11.70;97488.00;;;;5038963;28;20256;-80
2022/04/17 07:33:10;;;;;;;1.87;1.77;;;10.90;60.30;12.00;97494.00;;;;5035763;28;20280;-80
2022/04/17 07:35:37;;;;;;;1.87;1.70;;;11.20;60.00;12.20;97487.00;;;;5031692;28;20210;-81
2022/04/17 07:38:06;;;;;;;1.50;1.40;;;11.40;59.80;12.40;97495.00;;;;5031277;28;20209;-81
2022/04/17 07:40:35;;;;;;;3.07;1.80;;;11.70;59.60;12.70;97485.00;;;;5042784;28;20314;-82
2022/04/17 07:43:05;;;;;;;1.97;1.77;;;11.90;59.40;12.90;97484.00;;;;5048457;28;20190;-81
2022/04/17 07:45:33;;;;;;;1.73;1.63;;;12.10;59.20;13.10;97488.00;;;;5036438;28;20195;-84
2022/04/17 07:48:02;;;;;;;2.03;1.60;;;12.30;58.80;13.30;97493.00;;;;5035727;28;20217;-82
2022/04/17 07:50:31;;;;;;;1.60;1.50;;;12.50;57.80;13.50;97487.00;;;;5017008;28;20202;-85
2022/04/17 07:53:00;;;;;;;1.93;1.83;;;12.70;57.00;13.70;97489.00;;;;5016954;28;20268;-82
2022/04/17 07:55:28;;;;;;;1.73;1.53;;;12.90;57.00;13.90;97468.00;;;;5021589;28;20206;-83
2022/04/17 07:57:59;;;;;;;1.87;1.77;;;13.10;56.60;14.10;97475.00;;;;5038026;28;20213;-82
2022/04/17 08:00:28;;;;;;;1.93;1.83;;;13.30;56.50;14.30;97471.00;;;;5048071;28;20252;-82
2022/04/17 08:03:06;;;;;;;3.83;1.43;;;13.50;56.50;14.50;97480.00;;;;5057976;28;20275;-83
2022/04/17 08:05:38;;;;;;;2.10;1.40;;;13.70;57.00;14.70;97487.00;;;;5058083;28;20572;-83
2022/04/17 08:08:08;;;;;;;1.77;1.33;;;13.90;56.40;15.00;97484.00;;;;5041909;28;20223;-83
2022/04/17 08:10:36;;;;;;;1.60;1.50;;;14.00;55.40;15.20;97486.00;;;;5038344;28;20603;-82
2022/04/17 08:13:03;;;;;;;1.20;1.10;;;14.20;55.30;15.40;97484.00;;;;5037415;28;20207;-82
2022/04/17 08:15:30;;;;;;;1.80;1.40;;;14.40;55.20;15.60;97489.00;;;;5036039;28;20283;-85
2022/04/17 08:17:58;;;;;;;1.20;1.10;;;14.60;54.80;15.90;97488.00;;;;5019075;28;20259;-83
2022/04/17 08:20:26;;;;;;;1.67;1.33;;;14.80;54.60;16.10;97486.00;;;;5019110;28;20213;-83
2022/04/17 08:22:54;;;;;;;2.80;1.30;;;15.00;54.00;16.40;97488.00;;;;5036479;28;20189;-83
2022/04/17 08:25:22;;;;;;;2.83;1.63;;;15.20;53.00;16.60;97488.00;;;;5024577;28;20209;-84
2022/04/17 08:27:51;;;;;;;1.43;1.33;;;15.40;53.10;16.80;97493.00;;;;5016533;28;20583;-83
2022/04/17 08:30:21;;;;;;;1.20;1.10;;;15.50;53.20;17.10;97489.00;;;;5015930;28;20198;-85
2022/04/17 08:32:49;;;;;;;1.60;1.50;;;15.80;53.20;17.50;97489.00;;;;5035350;28;20190;-84
2022/04/17 08:35:16;;;;;;;1.30;1.20;;;16.00;52.00;17.80;97488.00;;;;5035505;28;20285;-83
2022/04/17 08:37:44;;;;;;;1.90;1.20;;;16.20;51.80;18.10;97491.00;;;;5038087;28;20244;-82
2022/04/17 08:40:14;;;;;;;1.70;1.03;;;16.50;51.40;18.50;97490.00;;;;5029573;28;20217;-83
2022/04/17 08:42:42;;;;;;;1.30;1.20;;;16.70;51.50;18.90;97481.00;;;;5029462;28;20270;-84
2022/04/17 08:45:11;;;;;;;2.03;1.30;;;17.00;51.30;19.40;97487.00;;;;5026875;28;20202;-84
2022/04/17 08:47:40;;;;;;;1.07;0.97;;;17.40;50.20;19.80;97483.00;;;;5025813;28;20213;-83
2022/04/17 08:50:08;;;;;;;1.00;1.00;;;17.80;51.00;20.20;97475.00;;;;5018924;28;20198;-85
2022/04/17 08:52:37;;;;;;;1.53;1.07;;;18.20;50.70;20.60;97490.00;;;;5022631;28;20213;-82
2022/04/17 08:55:05;;;;;;;1.20;1.00;;;18.70;50.40;21.00;97475.00;;;;5020359;28;20269;-83
2022/04/17 08:57:33;;;;;;;2.40;1.23;;;19.20;49.70;21.30;97478.00;;;;5022931;28;20304;-82
2022/04/17 09:00:01;;;;;;;1.30;1.20;;;19.60;48.60;21.60;97476.00;;;;5032357;28;20228;-80
2022/04/17 09:02:28;;;;;;;1.27;1.17;;;20.00;46.80;21.90;97469.00;;;;5035729;28;20189;-80
2022/04/17 09:04:55;;;;;;;1.90;1.30;;;20.30;43.80;22.10;97464.00;;;;5035606;28;20210;-83
2022/04/17 09:07:22;;;;;;;1.83;1.40;;;20.50;45.20;22.20;97472.00;;;;5036672;28;20225;-84
2022/04/17 09:09:51;;;;;;;2.60;1.33;;;20.70;43.20;22.30;97464.00;;;;5039020;28;20205;-83
2022/04/17 09:12:19;;;;;;;1.67;1.20;;;20.90;42.20;22.40;97466.00;;;;5034885;28;20296;-83
2022/04/17 09:14:48;;;;;;;1.70;1.00;;;21.00;43.40;22.60;97468.00;;;;5042810;28;20198;-83
2022/04/17 09:17:16;;;;;;;2.03;1.33;;;21.10;43.60;22.70;97459.00;;;;5020142;28;20213;-83
2022/04/17 09:19:43;;;;;;;1.40;1.30;;;21.40;41.00;22.90;97452.00;;;;5028287;28;20279;-84
2022/04/17 09:22:12;;;;;;;1.53;1.13;;;21.60;43.10;23.10;97451.00;;;;5034082;28;20205;-82
2022/04/17 09:24:41;;;;;;;1.00;0.83;;;22.00;42.70;23.30;97451.00;;;;5038512;28;20202;-84
2022/04/17 09:27:10;;;;;;;1.37;1.27;;;22.30;42.50;23.40;97461.00;;;;5039789;28;20255;-84
2022/04/17 09:29:39;;;;;;;1.17;1.07;;;22.60;40.40;23.50;97446.00;;;;5036386;28;20237;-84
2022/04/17 09:32:09;;;;;;;1.10;1.10;;;23.00;41.20;23.70;97446.00;;;;5036041;28;20208;-81
2022/04/17 09:34:45;;;;;;;1.80;1.10;;;23.30;41.10;23.90;97444.00;;;;5032531;28;20210;-83
2022/04/17 09:37:14;;;;;;;0.80;0.80;;;23.70;40.90;24.00;97440.00;;;;5023580;28;20223;-83
2022/04/17 09:39:43;;;;;;;1.00;0.97;;;24.10;40.70;24.20;97441.00;;;;5022621;28;20221;-86
2022/04/17 09:42:10;;;;;;;1.50;0.90;;;24.40;40.10;24.30;97434.00;;;;5014107;28;20198;-87
2022/04/17 09:44:46;;;;;;;1.03;0.93;;;24.70;39.80;24.50;97435.00;;;;5013135;28;20634;-86
2022/04/17 09:47:17;;;;;;;1.10;1.00;;;24.90;38.80;24.60;97429.00;;;;5015105;28;20220;-86
2022/04/17 09:49:57;;;;;;;1.27;1.17;;;25.20;37.60;24.70;97429.00;;;;5015664;28;20229;-82
2022/04/17 09:52:28;;;;;;;0.90;0.90;;;25.40;36.10;24.70;97415.00;;;;5015984;28;20698;-83
2022/04/17 09:54:55;;;;;;;0.80;0.80;;;25.60;38.00;24.80;97411.00;;;;5023915;28;20198;-82
2022/04/17 09:57:31;;;;;;;0.80;0.80;;;25.70;37.50;24.80;97423.00;;;;5024559;28;20227;-86
2022/04/17 10:00:07;;;;;;;2.17;1.00;;;25.90;36.20;24.80;97420.00;;;;5025050;28;20223;-83
2022/04/17 10:02:37;;;;;;;1.30;1.20;;;26.00;36.30;24.80;97418.00;;;;5024595;28;20202;-82
2022/04/17 10:05:06;;;;;;;1.10;1.10;;;26.10;35.80;24.90;97405.00;;;;5023654;28;20194;-85
2022/04/17 10:07:35;;;;;;;0.77;0.77;;;26.20;36.50;24.90;97406.00;;;;5021879;28;21483;-82
2022/04/17 10:10:02;;;;;;;2.10;1.07;;;26.20;36.20;24.90;97405.00;;;;5025709;28;20198;-82
2022/04/17 10:12:30;;;;;;;0.80;0.80;;;26.20;34.70;24.80;97401.00;;;;5023161;28;20257;-84
2022/04/17 10:15:02;;;;;;;1.40;1.30;;;26.20;35.10;24.80;97397.00;;;;5027361;28;20201;-81
2022/04/17 10:17:31;;;;;;;0.90;0.90;;;26.20;33.50;24.60;97392.00;;;;5027894;28;20233;-82
2022/04/17 10:20:06;;;;;;;1.30;1.20;;;26.10;33.20;24.50;97391.00;;;;5024790;28;20285;-83
2022/04/17 10:22:35;;;;;;;1.13;1.03;;;26.00;32.00;24.30;97385.00;;;;5026796;28;20643;-83
2022/04/17 10:25:06;;;;;;;1.77;1.40;;;25.80;30.10;24.00;97383.00;;;;5023102;28;20190;-82
2022/04/17 10:27:42;;;;;;;1.30;1.17;;;25.60;32.60;23.90;97379.00;;;;5016784;28;20209;-83
2022/04/17 10:30:15;;;;;;;1.00;1.00;;;25.40;32.00;23.70;97373.00;;;;5024208;28;20266;-81
2022/04/17 10:33:16;;;;;;;1.60;1.10;;;25.20;32.60;23.60;97364.00;;;;5020057;28;20180;-83
2022/04/17 10:36:28;;;;;;;0.80;0.80;;;25.10;32.00;23.50;97366.00;;;;5021587;28;20197;-82
2022/04/17 10:39:13;;;;;;;1.20;1.10;;;24.90;33.90;23.50;97354.00;;;;5001181;28;20201;-82
2022/04/17 10:41:41;;;;;;;1.50;1.20;;;24.70;33.70;23.40;97364.00;;;;5024901;28;20213;-83
2022/04/17 10:44:11;;;;;;;0.67;0.67;;;24.60;32.70;23.20;97357.00;;;;5026383;28;20287;-83
2022/04/17 10:46:51;;;;;;;0.97;0.97;;;24.40;33.60;23.10;97365.00;;;;5028590;28;20214;-83
2022/04/17 10:49:19;;;;;;;0.73;0.73;;;24.10;32.90;23.00;97364.00;;;;5027867;28;20197;-84
2022/04/17 10:51:57;;;;;;;1.30;1.20;;;23.90;33.30;22.90;97354.00;;;;5029468;28;20568;-82
2022/04/17 10:54:25;;;;;;;0.93;0.90;;;23.60;33.30;22.70;97348.00;;;;5027594;28;20289;-83
2022/04/17 10:57:02;;;;;;;1.23;1.13;;;23.30;34.00;22.60;97344.00;;;;5024970;28;20238;-83
2022/04/17 10:59:31;;;;;;;2.30;1.17;;;23.00;32.10;22.40;97344.00;;;;5024983;28;20194;-83
2022/04/17 11:02:22;;;;;;;1.97;1.03;;;22.70;33.30;22.20;97347.00;;;;5030915;28;20210;-85
2022/04/17 11:04:53;;;;;;;0.97;0.90;;;22.40;33.60;22.10;97335.00;;;;5025002;28;20228;-82
2022/04/17 11:07:29;;;;;;;1.73;1.13;;;22.20;34.00;21.90;97344.00;;;;5022597;28;20221;-82
2022/04/17 11:10:23;;;;;;;1.20;1.10;;;21.90;34.30;21.70;97340.00;;;;5023647;28;20201;-82
2022/04/17 11:12:57;;;;;;;1.20;1.10;;;21.60;34.40;21.40;97333.00;;;;5024484;28;20220;-83
2022/04/17 11:15:32;;;;;;;1.30;1.07;;;21.40;34.60;21.20;97332.00;;;;5023431;28;20192;-85
2022/04/17 11:18:04;;;;;;;0.80;0.73;;;21.10;35.20;21.00;97324.00;;;;5026401;28;20218;-83
2022/04/17 11:20:33;;;;;;;0.80;0.80;;;20.90;34.90;20.70;97321.00;;;;5023573;28;20236;-82
2022/04/17 11:23:01;;;;;;;1.00;0.90;;;20.70;34.70;20.50;97322.00;;;;5024526;28;20341;-83
2022/04/17 11:25:29;;;;;;;1.47;0.87;;;20.40;35.40;20.40;97315.00;;;;5023817;28;20273;-84
2022/04/17 11:28:02;;;;;;;0.83;0.83;;;20.20;36.00;20.30;97314.00;;;;5024503;28;20217;-85
2022/04/17 11:30:36;;;;;;;1.20;1.10;;;20.10;36.10;20.10;97312.00;;;;5024495;28;20205;-83
2022/04/17 11:33:06;;;;;;;1.00;0.90;;;19.90;35.90;20.10;97309.00;;;;5034504;28;20281;-81
2022/04/17 11:35:34;;;;;;;0.87;0.87;;;19.70;36.60;20.00;97309.00;;;;5032076;28;20244;-82